BME weather

Broome International Airport
Broome, Western Australia, Australia

Public forecast

Using degrees Celsius for public forecast. Weather courtesy of forecast.io.

METAR (pilot weather report)

Retrieved 2017/11/22 06:30 UTC (0 seconds ago):

YBRM 220630Z 28011KT 9999 FEW045CB SCT300 33/21 Q1002 RF00.0/000.0

TAF (pilot weather forecast)

Retrieved 2017/11/22 06:35 UTC (0 seconds ago):

TAF YBRM 220503Z 2206/2306 30014KT CAVOK FM221600 27007KT 9999 SCT015 FM230000 25014KT CAVOK